LIPZ/VCE METAR and TAF weather

Enter ICAO airport designator
Station Type Date Time Source
LIPZ METAR 2021/09/24 06:20 UTC NOAA

LIPZ 240620Z VRB01KT CAVOK 17/14 Q1018 NOSIG


Station Type Date Time Source
LIPZ Decoded METAR 2021/09/24 06:20 UTC NOAA

Venezia / Tessera, Italy (LIPZ) 45-30N 012-20E 6M
Sep 24, 2021 - 02:20 AM EDT / 2021.09.24 0620 UTC
Wind: Variable at 1 MPH (1 KT):0
Visibility: greater than 7 mile(s):0
Temperature: 62 F (17 C)
Dew Point: 57 F (14 C)
Relative Humidity: 82%
Pressure (altimeter): 30.06 in. Hg (1018 hPa)
ob: LIPZ 240620Z VRB01KT CAVOK 17/14 Q1018 NOSIG
cycle: 6

Station Type Date Time Source
LIPZ TAF 2021/09/24 06:24 UTC NOAA

TAF LIPZ 240500Z 2406/2512 VRB05KT 9999 SCT040
BECMG 2410/2412 16010KT
BECMG 2418/2421 03008KT
BECMG 2510/2512 16010KT

Example: see airport list